sensor_id;sensor_type;location;lat;lon;timestamp;P1;durP1;ratioP1;P2;durP2;ratioP2
54875;SDS011;40764;48.472;8.166;2022-07-23T00:02:50;17.23;;;12.97;;
54875;SDS011;40764;48.472;8.166;2022-07-23T00:08:51;16.50;;;12.30;;
54875;SDS011;40764;48.472;8.166;2022-07-23T00:14:51;17.03;;;12.83;;
54875;SDS011;40764;48.472;8.166;2022-07-23T00:20:52;17.13;;;10.53;;
54875;SDS011;40764;48.472;8.166;2022-07-23T00:26:52;14.97;;;10.27;;
54875;SDS011;40764;48.472;8.166;2022-07-23T00:32:54;11.38;;;8.40;;
54875;SDS011;40764;48.472;8.166;2022-07-23T00:38:56;13.85;;;9.43;;
54875;SDS011;40764;48.472;8.166;2022-07-23T00:44:57;11.40;;;10.10;;
54875;SDS011;40764;48.472;8.166;2022-07-23T00:50:57;11.05;;;8.73;;
54875;SDS011;40764;48.472;8.166;2022-07-23T00:56:58;15.10;;;8.55;;
54875;SDS011;40764;48.472;8.166;2022-07-23T01:02:58;15.70;;;9.20;;
54875;SDS011;40764;48.472;8.166;2022-07-23T01:08:58;10.43;;;8.82;;
54875;SDS011;40764;48.472;8.166;2022-07-23T01:14:59;15.82;;;9.70;;
54875;SDS011;40764;48.472;8.166;2022-07-23T01:21:00;13.25;;;9.10;;
54875;SDS011;40764;48.472;8.166;2022-07-23T01:27:00;14.33;;;9.43;;
54875;SDS011;40764;48.472;8.166;2022-07-23T01:33:00;14.93;;;10.77;;
54875;SDS011;40764;48.472;8.166;2022-07-23T01:39:01;14.83;;;10.67;;
54875;SDS011;40764;48.472;8.166;2022-07-23T01:45:06;16.90;;;11.48;;
54875;SDS011;40764;48.472;8.166;2022-07-23T01:51:07;13.80;;;10.87;;
54875;SDS011;40764;48.472;8.166;2022-07-23T01:57:07;12.67;;;10.90;;
54875;SDS011;40764;48.472;8.166;2022-07-23T02:03:08;15.27;;;10.00;;
54875;SDS011;40764;48.472;8.166;2022-07-23T02:09:08;14.40;;;11.35;;
54875;SDS011;40764;48.472;8.166;2022-07-23T02:15:09;14.77;;;10.30;;
54875;SDS011;40764;48.472;8.166;2022-07-23T02:21:09;12.17;;;9.67;;
54875;SDS011;40764;48.472;8.166;2022-07-23T02:27:10;15.07;;;10.87;;
54875;SDS011;40764;48.472;8.166;2022-07-23T02:33:10;14.65;;;10.70;;
54875;SDS011;40764;48.472;8.166;2022-07-23T02:39:11;16.27;;;10.53;;
54875;SDS011;40764;48.472;8.166;2022-07-23T02:45:11;18.43;;;12.43;;
54875;SDS011;40764;48.472;8.166;2022-07-23T02:51:11;19.67;;;11.20;;
54875;SDS011;40764;48.472;8.166;2022-07-23T02:57:12;17.05;;;11.43;;
54875;SDS011;40764;48.472;8.166;2022-07-23T03:03:12;17.98;;;11.80;;
54875;SDS011;40764;48.472;8.166;2022-07-23T03:09:12;15.47;;;10.97;;
54875;SDS011;40764;48.472;8.166;2022-07-23T03:15:13;16.80;;;11.60;;
54875;SDS011;40764;48.472;8.166;2022-07-23T03:21:13;18.17;;;11.55;;
54875;SDS011;40764;48.472;8.166;2022-07-23T03:27:14;16.17;;;11.07;;
54875;SDS011;40764;48.472;8.166;2022-07-23T03:33:18;16.03;;;11.63;;
54875;SDS011;40764;48.472;8.166;2022-07-23T03:39:20;16.08;;;12.02;;
54875;SDS011;40764;48.472;8.166;2022-07-23T03:45:20;19.15;;;13.60;;
54875;SDS011;40764;48.472;8.166;2022-07-23T03:51:21;15.03;;;12.20;;
54875;SDS011;40764;48.472;8.166;2022-07-23T03:57:21;16.55;;;12.10;;
54875;SDS011;40764;48.472;8.166;2022-07-23T04:03:22;13.97;;;10.63;;
54875;SDS011;40764;48.472;8.166;2022-07-23T04:09:22;18.05;;;12.93;;
54875;SDS011;40764;48.472;8.166;2022-07-23T04:15:22;16.20;;;11.35;;
54875;SDS011;40764;48.472;8.166;2022-07-23T04:21:23;13.17;;;11.13;;
54875;SDS011;40764;48.472;8.166;2022-07-23T04:27:24;17.63;;;11.57;;
54875;SDS011;40764;48.472;8.166;2022-07-23T04:33:24;14.60;;;11.17;;
54875;SDS011;40764;48.472;8.166;2022-07-23T04:39:25;20.40;;;10.80;;
54875;SDS011;40764;48.472;8.166;2022-07-23T04:45:25;13.20;;;11.40;;
54875;SDS011;40764;48.472;8.166;2022-07-23T04:51:26;21.20;;;13.13;;
54875;SDS011;40764;48.472;8.166;2022-07-23T04:57:26;16.77;;;12.47;;
54875;SDS011;40764;48.472;8.166;2022-07-23T05:03:27;19.13;;;12.53;;
54875;SDS011;40764;48.472;8.166;2022-07-23T05:09:27;19.73;;;12.53;;
54875;SDS011;40764;48.472;8.166;2022-07-23T05:15:28;14.43;;;11.98;;
54875;SDS011;40764;48.472;8.166;2022-07-23T05:21:28;17.67;;;11.90;;
54875;SDS011;40764;48.472;8.166;2022-07-23T05:27:28;17.02;;;11.70;;
54875;SDS011;40764;48.472;8.166;2022-07-23T05:33:29;18.10;;;12.25;;
54875;SDS011;40764;48.472;8.166;2022-07-23T05:39:31;15.82;;;10.05;;
54875;SDS011;40764;48.472;8.166;2022-07-23T05:45:31;12.85;;;10.07;;
54875;SDS011;40764;48.472;8.166;2022-07-23T05:51:31;14.73;;;10.70;;
54875;SDS011;40764;48.472;8.166;2022-07-23T05:57:32;12.73;;;10.03;;
54875;SDS011;40764;48.472;8.166;2022-07-23T06:03:32;18.00;;;12.00;;
54875;SDS011;40764;48.472;8.166;2022-07-23T06:09:32;18.33;;;10.87;;
54875;SDS011;40764;48.472;8.166;2022-07-23T06:15:33;13.57;;;10.50;;
54875;SDS011;40764;48.472;8.166;2022-07-23T06:21:33;14.53;;;11.20;;
54875;SDS011;40764;48.472;8.166;2022-07-23T06:27:34;14.07;;;10.80;;
54875;SDS011;40764;48.472;8.166;2022-07-23T06:33:34;14.33;;;10.73;;
54875;SDS011;40764;48.472;8.166;2022-07-23T06:39:34;14.70;;;9.77;;
54875;SDS011;40764;48.472;8.166;2022-07-23T06:45:35;15.77;;;9.60;;
54875;SDS011;40764;48.472;8.166;2022-07-23T06:51:35;16.93;;;10.00;;
54875;SDS011;40764;48.472;8.166;2022-07-23T06:57:36;14.17;;;9.37;;
54875;SDS011;40764;48.472;8.166;2022-07-23T07:03:36;14.30;;;9.75;;
54875;SDS011;40764;48.472;8.166;2022-07-23T07:09:37;14.03;;;9.57;;
54875;SDS011;40764;48.472;8.166;2022-07-23T07:15:37;15.10;;;10.37;;
54875;SDS011;40764;48.472;8.166;2022-07-23T07:21:38;10.43;;;8.70;;
54875;SDS011;40764;48.472;8.166;2022-07-23T07:27:38;13.85;;;10.18;;
54875;SDS011;40764;48.472;8.166;2022-07-23T07:33:39;12.77;;;8.70;;
54875;SDS011;40764;48.472;8.166;2022-07-23T07:39:39;9.83;;;7.93;;
54875;SDS011;40764;48.472;8.166;2022-07-23T07:45:39;14.27;;;8.93;;
54875;SDS011;40764;48.472;8.166;2022-07-23T07:51:40;10.13;;;8.05;;
54875;SDS011;40764;48.472;8.166;2022-07-23T07:57:40;13.35;;;7.78;;
54875;SDS011;40764;48.472;8.166;2022-07-23T08:03:40;10.83;;;7.93;;
54875;SDS011;40764;48.472;8.166;2022-07-23T08:09:41;11.70;;;7.87;;
54875;SDS011;40764;48.472;8.166;2022-07-23T08:15:42;11.53;;;7.80;;
54875;SDS011;40764;48.472;8.166;2022-07-23T08:27:49;11.68;;;7.85;;
54875;SDS011;40764;48.472;8.166;2022-07-23T08:33:50;8.18;;;7.18;;
54875;SDS011;40764;48.472;8.166;2022-07-23T08:39:52;11.95;;;7.63;;
54875;SDS011;40764;48.472;8.166;2022-07-23T08:45:54;10.40;;;7.43;;
54875;SDS011;40764;48.472;8.166;2022-07-23T08:51:58;9.88;;;7.78;;
54875;SDS011;40764;48.472;8.166;2022-07-23T08:57:59;11.77;;;7.87;;
54875;SDS011;40764;48.472;8.166;2022-07-23T09:04:02;10.50;;;8.00;;
54875;SDS011;40764;48.472;8.166;2022-07-23T09:10:10;11.35;;;7.50;;
54875;SDS011;40764;48.472;8.166;2022-07-23T09:16:12;7.68;;;6.85;;
54875;SDS011;40764;48.472;8.166;2022-07-23T09:22:26;12.80;;;7.72;;
54875;SDS011;40764;48.472;8.166;2022-07-23T09:35:14;13.13;;;8.43;;
54875;SDS011;40764;48.472;8.166;2022-07-23T09:41:21;10.93;;;7.40;;
54875;SDS011;40764;48.472;8.166;2022-07-23T09:47:26;19.45;;;8.55;;
54875;SDS011;40764;48.472;8.166;2022-07-23T09:53:27;12.27;;;9.10;;
54875;SDS011;40764;48.472;8.166;2022-07-23T09:59:33;14.25;;;8.77;;
54875;SDS011;40764;48.472;8.166;2022-07-23T10:05:35;10.55;;;8.32;;
54875;SDS011;40764;48.472;8.166;2022-07-23T10:11:37;13.95;;;8.95;;
54875;SDS011;40764;48.472;8.166;2022-07-23T10:17:38;9.82;;;7.80;;
54875;SDS011;40764;48.472;8.166;2022-07-23T10:23:47;13.10;;;7.57;;
54875;SDS011;40764;48.472;8.166;2022-07-23T10:30:04;15.73;;;7.80;;
54875;SDS011;40764;48.472;8.166;2022-07-23T10:36:37;9.07;;;6.30;;
54875;SDS011;40764;48.472;8.166;2022-07-23T10:42:48;12.70;;;7.38;;
54875;SDS011;40764;48.472;8.166;2022-07-23T10:49:25;8.48;;;6.60;;
54875;SDS011;40764;48.472;8.166;2022-07-23T11:01:37;9.07;;;6.60;;
54875;SDS011;40764;48.472;8.166;2022-07-23T11:14:03;9.07;;;6.53;;
54875;SDS011;40764;48.472;8.166;2022-07-23T11:26:40;9.98;;;7.22;;
54875;SDS011;40764;48.472;8.166;2022-07-23T11:32:43;10.65;;;6.25;;
54875;SDS011;40764;48.472;8.166;2022-07-23T11:38:46;10.07;;;6.75;;
54875;SDS011;40764;48.472;8.166;2022-07-23T11:44:50;8.93;;;6.47;;
54875;SDS011;40764;48.472;8.166;2022-07-23T11:50:51;8.48;;;6.93;;
54875;SDS011;40764;48.472;8.166;2022-07-23T11:56:59;33.50;;;12.43;;
54875;SDS011;40764;48.472;8.166;2022-07-23T12:03:01;8.43;;;6.57;;
54875;SDS011;40764;48.472;8.166;2022-07-23T12:09:03;8.23;;;6.78;;
54875;SDS011;40764;48.472;8.166;2022-07-23T12:21:04;9.40;;;6.63;;
54875;SDS011;40764;48.472;8.166;2022-07-23T12:27:13;9.27;;;6.45;;
54875;SDS011;40764;48.472;8.166;2022-07-23T12:33:36;10.10;;;7.05;;
54875;SDS011;40764;48.472;8.166;2022-07-23T12:39:37;8.32;;;7.40;;
54875;SDS011;40764;48.472;8.166;2022-07-23T12:45:57;9.20;;;7.00;;
54875;SDS011;40764;48.472;8.166;2022-07-23T12:52:15;10.73;;;7.22;;
54875;SDS011;40764;48.472;8.166;2022-07-23T12:58:17;11.82;;;7.90;;
54875;SDS011;40764;48.472;8.166;2022-07-23T13:04:20;14.82;;;7.72;;
54875;SDS011;40764;48.472;8.166;2022-07-23T13:10:22;9.60;;;7.38;;
54875;SDS011;40764;48.472;8.166;2022-07-23T13:22:23;12.65;;;8.10;;
54875;SDS011;40764;48.472;8.166;2022-07-23T13:28:26;10.88;;;8.30;;
54875;SDS011;40764;48.472;8.166;2022-07-23T13:40:27;10.82;;;8.02;;
54875;SDS011;40764;48.472;8.166;2022-07-23T13:52:48;11.50;;;7.80;;
54875;SDS011;40764;48.472;8.166;2022-07-23T13:59:18;10.05;;;7.60;;
54875;SDS011;40764;48.472;8.166;2022-07-23T14:05:26;11.63;;;8.35;;
54875;SDS011;40764;48.472;8.166;2022-07-23T14:11:35;12.50;;;8.18;;
54875;SDS011;40764;48.472;8.166;2022-07-23T14:17:51;12.60;;;8.05;;
54875;SDS011;40764;48.472;8.166;2022-07-23T14:23:52;9.15;;;7.72;;
54875;SDS011;40764;48.472;8.166;2022-07-23T14:29:53;9.50;;;8.50;;
54875;SDS011;40764;48.472;8.166;2022-07-23T14:35:54;11.50;;;8.40;;
54875;SDS011;40764;48.472;8.166;2022-07-23T14:41:54;11.93;;;9.17;;
54875;SDS011;40764;48.472;8.166;2022-07-23T14:47:55;10.43;;;7.43;;
54875;SDS011;40764;48.472;8.166;2022-07-23T14:53:55;9.57;;;8.02;;
54875;SDS011;40764;48.472;8.166;2022-07-23T14:59:56;12.93;;;7.93;;
54875;SDS011;40764;48.472;8.166;2022-07-23T15:05:56;11.57;;;7.72;;
54875;SDS011;40764;48.472;8.166;2022-07-23T15:11:57;12.13;;;8.17;;
54875;SDS011;40764;48.472;8.166;2022-07-23T15:17:57;9.97;;;8.40;;
54875;SDS011;40764;48.472;8.166;2022-07-23T15:23:58;10.23;;;8.07;;
54875;SDS011;40764;48.472;8.166;2022-07-23T15:29:58;10.93;;;8.00;;
54875;SDS011;40764;48.472;8.166;2022-07-23T15:35:59;12.37;;;7.80;;
54875;SDS011;40764;48.472;8.166;2022-07-23T15:42:00;10.70;;;8.13;;
54875;SDS011;40764;48.472;8.166;2022-07-23T15:48:01;11.93;;;8.15;;
54875;SDS011;40764;48.472;8.166;2022-07-23T15:54:01;14.27;;;8.43;;
54875;SDS011;40764;48.472;8.166;2022-07-23T16:00:03;11.10;;;7.37;;
54875;SDS011;40764;48.472;8.166;2022-07-23T16:06:05;13.57;;;8.60;;
54875;SDS011;40764;48.472;8.166;2022-07-23T16:12:06;10.73;;;8.10;;
54875;SDS011;40764;48.472;8.166;2022-07-23T16:18:07;11.75;;;7.97;;
54875;SDS011;40764;48.472;8.166;2022-07-23T16:24:08;9.93;;;7.30;;
54875;SDS011;40764;48.472;8.166;2022-07-23T16:30:10;12.53;;;8.17;;
54875;SDS011;40764;48.472;8.166;2022-07-23T16:36:11;12.18;;;8.45;;
54875;SDS011;40764;48.472;8.166;2022-07-23T16:42:12;11.77;;;7.70;;
54875;SDS011;40764;48.472;8.166;2022-07-23T16:48:12;8.85;;;7.43;;
54875;SDS011;40764;48.472;8.166;2022-07-23T16:54:13;9.88;;;7.85;;
54875;SDS011;40764;48.472;8.166;2022-07-23T17:00:15;11.82;;;7.78;;
54875;SDS011;40764;48.472;8.166;2022-07-23T17:06:16;10.18;;;7.70;;
54875;SDS011;40764;48.472;8.166;2022-07-23T17:12:16;14.30;;;8.23;;
54875;SDS011;40764;48.472;8.166;2022-07-23T17:24:17;9.93;;;6.93;;
54875;SDS011;40764;48.472;8.166;2022-07-23T17:36:19;16.30;;;7.65;;
54875;SDS011;40764;48.472;8.166;2022-07-23T17:42:19;10.87;;;7.67;;
54875;SDS011;40764;48.472;8.166;2022-07-23T17:54:20;11.52;;;7.90;;
54875;SDS011;40764;48.472;8.166;2022-07-23T18:06:22;13.85;;;7.18;;
54875;SDS011;40764;48.472;8.166;2022-07-23T18:18:24;10.23;;;6.33;;
54875;SDS011;40764;48.472;8.166;2022-07-23T18:30:25;13.93;;;6.93;;
54875;SDS011;40764;48.472;8.166;2022-07-23T18:42:26;10.88;;;6.82;;
54875;SDS011;40764;48.472;8.166;2022-07-23T18:54:27;17.35;;;7.95;;
54875;SDS011;40764;48.472;8.166;2022-07-23T19:00:27;14.23;;;7.30;;
54875;SDS011;40764;48.472;8.166;2022-07-23T19:06:28;12.38;;;7.57;;
54875;SDS011;40764;48.472;8.166;2022-07-23T19:12:29;10.37;;;8.07;;
54875;SDS011;40764;48.472;8.166;2022-07-23T19:18:29;11.07;;;8.25;;
54875;SDS011;40764;48.472;8.166;2022-07-23T19:24:30;11.15;;;8.30;;
54875;SDS011;40764;48.472;8.166;2022-07-23T19:30:32;12.35;;;8.43;;
54875;SDS011;40764;48.472;8.166;2022-07-23T19:36:32;12.70;;;7.93;;
54875;SDS011;40764;48.472;8.166;2022-07-23T19:42:32;11.33;;;8.67;;
54875;SDS011;40764;48.472;8.166;2022-07-23T19:54:34;14.07;;;9.80;;
54875;SDS011;40764;48.472;8.166;2022-07-23T20:00:34;16.15;;;9.38;;
54875;SDS011;40764;48.472;8.166;2022-07-23T20:06:35;13.23;;;9.30;;
54875;SDS011;40764;48.472;8.166;2022-07-23T20:12:35;11.83;;;8.73;;
54875;SDS011;40764;48.472;8.166;2022-07-23T20:18:36;14.60;;;9.57;;
54875;SDS011;40764;48.472;8.166;2022-07-23T20:24:36;12.88;;;10.35;;
54875;SDS011;40764;48.472;8.166;2022-07-23T20:30:37;17.23;;;11.20;;
54875;SDS011;40764;48.472;8.166;2022-07-23T20:36:37;17.20;;;10.87;;
54875;SDS011;40764;48.472;8.166;2022-07-23T20:42:38;16.23;;;10.93;;
54875;SDS011;40764;48.472;8.166;2022-07-23T20:48:38;15.67;;;10.60;;
54875;SDS011;40764;48.472;8.166;2022-07-23T20:54:39;15.27;;;10.77;;
54875;SDS011;40764;48.472;8.166;2022-07-23T21:00:39;13.43;;;9.93;;
54875;SDS011;40764;48.472;8.166;2022-07-23T21:06:40;16.33;;;10.00;;
54875;SDS011;40764;48.472;8.166;2022-07-23T21:12:40;16.57;;;10.83;;
54875;SDS011;40764;48.472;8.166;2022-07-23T21:18:40;17.00;;;10.23;;
54875;SDS011;40764;48.472;8.166;2022-07-23T21:24:41;18.13;;;11.80;;
54875;SDS011;40764;48.472;8.166;2022-07-23T21:30:41;15.67;;;11.70;;
54875;SDS011;40764;48.472;8.166;2022-07-23T21:36:42;14.47;;;10.83;;
54875;SDS011;40764;48.472;8.166;2022-07-23T21:42:42;18.00;;;12.75;;
54875;SDS011;40764;48.472;8.166;2022-07-23T21:48:42;16.60;;;11.93;;
54875;SDS011;40764;48.472;8.166;2022-07-23T21:54:43;30.47;;;13.13;;
54875;SDS011;40764;48.472;8.166;2022-07-23T22:00:44;15.20;;;12.27;;
54875;SDS011;40764;48.472;8.166;2022-07-23T22:06:44;14.50;;;11.53;;
54875;SDS011;40764;48.472;8.166;2022-07-23T22:12:45;17.13;;;11.83;;
54875;SDS011;40764;48.472;8.166;2022-07-23T22:18:45;19.50;;;11.30;;
54875;SDS011;40764;48.472;8.166;2022-07-23T22:24:45;18.08;;;11.50;;
54875;SDS011;40764;48.472;8.166;2022-07-23T22:30:46;13.98;;;10.05;;
54875;SDS011;40764;48.472;8.166;2022-07-23T22:36:46;17.10;;;11.67;;
54875;SDS011;40764;48.472;8.166;2022-07-23T22:42:47;15.63;;;12.40;;
54875;SDS011;40764;48.472;8.166;2022-07-23T22:48:47;20.53;;;13.03;;
54875;SDS011;40764;48.472;8.166;2022-07-23T22:54:48;18.50;;;12.20;;
54875;SDS011;40764;48.472;8.166;2022-07-23T23:00:48;17.30;;;10.90;;
54875;SDS011;40764;48.472;8.166;2022-07-23T23:06:48;15.00;;;11.60;;
54875;SDS011;40764;48.472;8.166;2022-07-23T23:12:49;16.67;;;11.35;;
54875;SDS011;40764;48.472;8.166;2022-07-23T23:18:49;18.25;;;11.85;;
54875;SDS011;40764;48.472;8.166;2022-07-23T23:24:50;19.20;;;11.80;;
54875;SDS011;40764;48.472;8.166;2022-07-23T23:30:51;20.50;;;12.03;;
54875;SDS011;40764;48.472;8.166;2022-07-23T23:36:51;13.65;;;11.07;;
54875;SDS011;40764;48.472;8.166;2022-07-23T23:42:51;17.48;;;12.32;;
54875;SDS011;40764;48.472;8.166;2022-07-23T23:48:52;13.17;;;11.10;;
54875;SDS011;40764;48.472;8.166;2022-07-23T23:54:52;17.87;;;11.13;;
